Thacker, West Virginia
Current Conditions -  °F | °C
As of 9:55 AM on Wednesday 22 Oct 2014 (Local Time) from KPBX Reporting Station
Overcast Overcast  
Wind Chill: 40°   Ceiling: 800
Heat Index: 43°   Visibility: 10mi
Dew Point: 41°   Wind: 6mph
Humidity: 91%   Direction: 320°NW
Pressure: 30.21"   Gusts: NA
Location:  37.59°N, 82.13°W
Report Text: KPBX 221355Z AUTO 32005KT 10SM OVC008 06/05 A3021 RMK AO2 T00630049
Loading
Personal Weather Stations






























Interactive Weather Map New forecast layout! Learn more

10-Day Weather Forecast

Advertisements
Track Severe Weather on mobile